sensor_id;sensor_type;location;lat;lon;timestamp;P1;durP1;ratioP1;P2;durP2;ratioP2
61127;SDS011;47013;42.664;23.242;2022-10-31T00:01:29;0.00;;;0.00;;
61127;SDS011;47013;42.664;23.242;2022-10-31T00:03:57;2.53;;;0.40;;
61127;SDS011;47013;42.664;23.242;2022-10-31T00:06:23;0.10;;;0.10;;
61127;SDS011;47013;42.664;23.242;2022-10-31T00:08:53;0.05;;;0.05;;
61127;SDS011;47013;42.664;23.242;2022-10-31T00:11:20;0.00;;;0.00;;
61127;SDS011;47013;42.664;23.242;2022-10-31T00:13:45;0.10;;;0.10;;
61127;SDS011;47013;42.664;23.242;2022-10-31T00:16:18;0.20;;;0.20;;
61127;SDS011;47013;42.664;23.242;2022-10-31T00:18:49;0.57;;;0.43;;
61127;SDS011;47013;42.664;23.242;2022-10-31T00:21:15;0.52;;;0.40;;
61127;SDS011;47013;42.664;23.242;2022-10-31T00:23:41;0.10;;;0.10;;
61127;SDS011;47013;42.664;23.242;2022-10-31T00:26:06;0.82;;;0.30;;
61127;SDS011;47013;42.664;23.242;2022-10-31T00:28:32;0.38;;;0.28;;
61127;SDS011;47013;42.664;23.242;2022-10-31T00:31:01;0.15;;;0.15;;
61127;SDS011;47013;42.664;23.242;2022-10-31T00:33:28;0.52;;;0.15;;
61127;SDS011;47013;42.664;23.242;2022-10-31T00:35:53;0.00;;;0.00;;
61127;SDS011;47013;42.664;23.242;2022-10-31T00:38:19;0.17;;;0.17;;
61127;SDS011;47013;42.664;23.242;2022-10-31T00:40:44;0.10;;;0.10;;
61127;SDS011;47013;42.664;23.242;2022-10-31T00:43:09;2.17;;;0.93;;
61127;SDS011;47013;42.664;23.242;2022-10-31T00:45:35;0.10;;;0.10;;
61127;SDS011;47013;42.664;23.242;2022-10-31T00:48:00;0.60;;;0.35;;
61127;SDS011;47013;42.664;23.242;2022-10-31T00:50:25;0.45;;;0.30;;
61127;SDS011;47013;42.664;23.242;2022-10-31T00:52:51;0.65;;;0.55;;
61127;SDS011;47013;42.664;23.242;2022-10-31T00:55:16;0.60;;;0.32;;
61127;SDS011;47013;42.664;23.242;2022-10-31T00:57:42;0.20;;;0.20;;
61127;SDS011;47013;42.664;23.242;2022-10-31T01:00:07;0.17;;;0.17;;
61127;SDS011;47013;42.664;23.242;2022-10-31T01:02:33;0.00;;;0.00;;
61127;SDS011;47013;42.664;23.242;2022-10-31T01:04:58;0.80;;;0.28;;
61127;SDS011;47013;42.664;23.242;2022-10-31T01:07:24;0.52;;;0.40;;
61127;SDS011;47013;42.664;23.242;2022-10-31T01:09:49;0.25;;;0.25;;
61127;SDS011;47013;42.664;23.242;2022-10-31T01:12:15;0.08;;;0.08;;
61127;SDS011;47013;42.664;23.242;2022-10-31T01:14:43;0.13;;;0.13;;
61127;SDS011;47013;42.664;23.242;2022-10-31T01:17:10;0.80;;;0.40;;
61127;SDS011;47013;42.664;23.242;2022-10-31T01:19:35;0.17;;;0.17;;
61127;SDS011;47013;42.664;23.242;2022-10-31T01:22:01;0.00;;;0.00;;
61127;SDS011;47013;42.664;23.242;2022-10-31T01:24:26;0.25;;;0.25;;
61127;SDS011;47013;42.664;23.242;2022-10-31T01:26:51;0.00;;;0.00;;
61127;SDS011;47013;42.664;23.242;2022-10-31T01:29:17;0.60;;;0.60;;
61127;SDS011;47013;42.664;23.242;2022-10-31T01:31:42;0.30;;;0.30;;
61127;SDS011;47013;42.664;23.242;2022-10-31T01:34:08;0.20;;;0.17;;
61127;SDS011;47013;42.664;23.242;2022-10-31T01:36:38;0.08;;;0.08;;
61127;SDS011;47013;42.664;23.242;2022-10-31T01:39:05;0.60;;;0.50;;
61127;SDS011;47013;42.664;23.242;2022-10-31T01:41:33;0.32;;;0.28;;
61127;SDS011;47013;42.664;23.242;2022-10-31T01:44:48;0.80;;;0.40;;
61127;SDS011;47013;42.664;23.242;2022-10-31T01:46:48;0.10;;;0.10;;
61127;SDS011;47013;42.664;23.242;2022-10-31T01:49:30;0.00;;;0.00;;
61127;SDS011;47013;42.664;23.242;2022-10-31T01:54:33;0.17;;;0.17;;
61127;SDS011;47013;42.664;23.242;2022-10-31T01:57:03;0.10;;;0.10;;
61127;SDS011;47013;42.664;23.242;2022-10-31T01:59:32;0.00;;;0.00;;
61127;SDS011;47013;42.664;23.242;2022-10-31T02:02:02;0.17;;;0.17;;
61127;SDS011;47013;42.664;23.242;2022-10-31T02:04:28;0.15;;;0.10;;
61127;SDS011;47013;42.664;23.242;2022-10-31T02:06:58;0.17;;;0.17;;
61127;SDS011;47013;42.664;23.242;2022-10-31T02:09:28;0.05;;;0.05;;
61127;SDS011;47013;42.664;23.242;2022-10-31T02:11:57;0.10;;;0.10;;
61127;SDS011;47013;42.664;23.242;2022-10-31T02:14:25;1.55;;;0.55;;
61127;SDS011;47013;42.664;23.242;2022-10-31T02:19:24;0.40;;;0.20;;
61127;SDS011;47013;42.664;23.242;2022-10-31T02:22:04;0.30;;;0.20;;
61127;SDS011;47013;42.664;23.242;2022-10-31T02:32:34;0.38;;;0.30;;
61127;SDS011;47013;42.664;23.242;2022-10-31T02:37:48;0.08;;;0.03;;
61127;SDS011;47013;42.664;23.242;2022-10-31T02:40:22;0.63;;;0.40;;
61127;SDS011;47013;42.664;23.242;2022-10-31T02:45:38;0.90;;;0.50;;
61127;SDS011;47013;42.664;23.242;2022-10-31T02:48:30;0.20;;;0.10;;
61127;SDS011;47013;42.664;23.242;2022-10-31T02:51:00;0.73;;;0.20;;
61127;SDS011;47013;42.664;23.242;2022-10-31T02:53:31;0.10;;;0.10;;
61127;SDS011;47013;42.664;23.242;2022-10-31T02:56:00;0.70;;;0.38;;
61127;SDS011;47013;42.664;23.242;2022-10-31T02:58:31;0.93;;;0.28;;
61127;SDS011;47013;42.664;23.242;2022-10-31T03:01:12;0.85;;;0.55;;
61127;SDS011;47013;42.664;23.242;2022-10-31T03:09:25;0.70;;;0.57;;
61127;SDS011;47013;42.664;23.242;2022-10-31T03:11:58;0.93;;;0.47;;
61127;SDS011;47013;42.664;23.242;2022-10-31T03:14:43;0.25;;;0.25;;
61127;SDS011;47013;42.664;23.242;2022-10-31T03:17:36;1.17;;;0.55;;
61127;SDS011;47013;42.664;23.242;2022-10-31T03:20:07;0.50;;;0.35;;
61127;SDS011;47013;42.664;23.242;2022-10-31T03:22:35;0.95;;;0.17;;
61127;SDS011;47013;42.664;23.242;2022-10-31T03:25:03;0.65;;;0.57;;
61127;SDS011;47013;42.664;23.242;2022-10-31T03:27:31;0.35;;;0.30;;
61127;SDS011;47013;42.664;23.242;2022-10-31T03:30:00;0.10;;;0.10;;
61127;SDS011;47013;42.664;23.242;2022-10-31T03:32:33;0.25;;;0.17;;
61127;SDS011;47013;42.664;23.242;2022-10-31T03:35:03;0.17;;;0.17;;
61127;SDS011;47013;42.664;23.242;2022-10-31T03:37:33;0.65;;;0.50;;
61127;SDS011;47013;42.664;23.242;2022-10-31T03:40:00;0.00;;;0.00;;
61127;SDS011;47013;42.664;23.242;2022-10-31T03:42:31;0.47;;;0.40;;
61127;SDS011;47013;42.664;23.242;2022-10-31T03:45:01;0.10;;;0.10;;
61127;SDS011;47013;42.664;23.242;2022-10-31T03:47:30;0.30;;;0.30;;
61127;SDS011;47013;42.664;23.242;2022-10-31T03:49:57;1.35;;;0.85;;
61127;SDS011;47013;42.664;23.242;2022-10-31T03:52:30;1.10;;;0.77;;
61127;SDS011;47013;42.664;23.242;2022-10-31T03:55:14;0.63;;;0.50;;
61127;SDS011;47013;42.664;23.242;2022-10-31T03:57:52;0.82;;;0.73;;
61127;SDS011;47013;42.664;23.242;2022-10-31T04:00:28;1.00;;;0.30;;
61127;SDS011;47013;42.664;23.242;2022-10-31T04:03:00;0.47;;;0.30;;
61127;SDS011;47013;42.664;23.242;2022-10-31T04:05:32;0.17;;;0.17;;
61127;SDS011;47013;42.664;23.242;2022-10-31T04:07:59;1.30;;;0.60;;
61127;SDS011;47013;42.664;23.242;2022-10-31T04:10:28;0.47;;;0.45;;
61127;SDS011;47013;42.664;23.242;2022-10-31T04:12:56;0.88;;;0.60;;
61127;SDS011;47013;42.664;23.242;2022-10-31T04:15:33;0.32;;;0.30;;
61127;SDS011;47013;42.664;23.242;2022-10-31T04:18:01;0.97;;;0.57;;
61127;SDS011;47013;42.664;23.242;2022-10-31T04:20:30;0.13;;;0.13;;
61127;SDS011;47013;42.664;23.242;2022-10-31T04:22:57;0.88;;;0.43;;
61127;SDS011;47013;42.664;23.242;2022-10-31T04:25:23;0.20;;;0.17;;
61127;SDS011;47013;42.664;23.242;2022-10-31T04:27:48;0.08;;;0.08;;
61127;SDS011;47013;42.664;23.242;2022-10-31T04:30:13;0.10;;;0.10;;
61127;SDS011;47013;42.664;23.242;2022-10-31T04:32:39;0.15;;;0.15;;
61127;SDS011;47013;42.664;23.242;2022-10-31T04:35:04;0.50;;;0.45;;
61127;SDS011;47013;42.664;23.242;2022-10-31T04:37:30;0.10;;;0.10;;
61127;SDS011;47013;42.664;23.242;2022-10-31T04:39:55;0.38;;;0.38;;
61127;SDS011;47013;42.664;23.242;2022-10-31T04:42:21;0.20;;;0.20;;
61127;SDS011;47013;42.664;23.242;2022-10-31T04:44:46;0.50;;;0.50;;
61127;SDS011;47013;42.664;23.242;2022-10-31T04:47:11;1.30;;;0.45;;
61127;SDS011;47013;42.664;23.242;2022-10-31T04:49:37;0.38;;;0.38;;
61127;SDS011;47013;42.664;23.242;2022-10-31T04:52:02;0.15;;;0.15;;
61127;SDS011;47013;42.664;23.242;2022-10-31T04:54:28;0.03;;;0.03;;
61127;SDS011;47013;42.664;23.242;2022-10-31T04:56:53;0.65;;;0.50;;
61127;SDS011;47013;42.664;23.242;2022-10-31T04:59:18;0.30;;;0.25;;
61127;SDS011;47013;42.664;23.242;2022-10-31T05:01:44;1.05;;;0.80;;
61127;SDS011;47013;42.664;23.242;2022-10-31T05:04:09;0.57;;;0.57;;
61127;SDS011;47013;42.664;23.242;2022-10-31T05:06:34;1.00;;;0.70;;
61127;SDS011;47013;42.664;23.242;2022-10-31T05:09:00;0.85;;;0.47;;
61127;SDS011;47013;42.664;23.242;2022-10-31T05:11:26;0.30;;;0.30;;
61127;SDS011;47013;42.664;23.242;2022-10-31T05:13:51;0.55;;;0.52;;
61127;SDS011;47013;42.664;23.242;2022-10-31T05:16:16;0.30;;;0.30;;
61127;SDS011;47013;42.664;23.242;2022-10-31T05:18:42;0.20;;;0.20;;
61127;SDS011;47013;42.664;23.242;2022-10-31T05:21:07;0.65;;;0.55;;
61127;SDS011;47013;42.664;23.242;2022-10-31T05:23:32;1.63;;;1.13;;
61127;SDS011;47013;42.664;23.242;2022-10-31T05:25:58;1.63;;;0.82;;
61127;SDS011;47013;42.664;23.242;2022-10-31T05:28:23;2.75;;;0.75;;
61127;SDS011;47013;42.664;23.242;2022-10-31T05:30:49;1.30;;;0.95;;
61127;SDS011;47013;42.664;23.242;2022-10-31T05:33:14;0.80;;;0.47;;
61127;SDS011;47013;42.664;23.242;2022-10-31T05:35:39;1.08;;;0.70;;
61127;SDS011;47013;42.664;23.242;2022-10-31T05:38:05;0.65;;;0.57;;
61127;SDS011;47013;42.664;23.242;2022-10-31T05:40:30;1.38;;;0.88;;
61127;SDS011;47013;42.664;23.242;2022-10-31T05:42:56;2.10;;;1.20;;
61127;SDS011;47013;42.664;23.242;2022-10-31T05:45:23;1.10;;;0.68;;
61127;SDS011;47013;42.664;23.242;2022-10-31T05:50:17;2.00;;;1.00;;
61127;SDS011;47013;42.664;23.242;2022-10-31T05:52:43;0.50;;;0.50;;
61127;SDS011;47013;42.664;23.242;2022-10-31T05:55:08;1.65;;;1.13;;
61127;SDS011;47013;42.664;23.242;2022-10-31T05:57:33;2.38;;;1.38;;
61127;SDS011;47013;42.664;23.242;2022-10-31T05:59:59;1.10;;;0.65;;
61127;SDS011;47013;42.664;23.242;2022-10-31T06:02:24;2.83;;;1.35;;
61127;SDS011;47013;42.664;23.242;2022-10-31T06:04:51;1.60;;;1.05;;
61127;SDS011;47013;42.664;23.242;2022-10-31T06:07:17;6.47;;;0.70;;
61127;SDS011;47013;42.664;23.242;2022-10-31T06:09:42;1.02;;;0.80;;
61127;SDS011;47013;42.664;23.242;2022-10-31T06:12:08;1.80;;;1.38;;
61127;SDS011;47013;42.664;23.242;2022-10-31T06:14:33;0.32;;;0.32;;
61127;SDS011;47013;42.664;23.242;2022-10-31T06:16:58;1.02;;;0.90;;
61127;SDS011;47013;42.664;23.242;2022-10-31T06:19:24;1.38;;;1.08;;
61127;SDS011;47013;42.664;23.242;2022-10-31T06:21:49;0.63;;;0.63;;
61127;SDS011;47013;42.664;23.242;2022-10-31T06:24:14;1.50;;;1.15;;
61127;SDS011;47013;42.664;23.242;2022-10-31T06:26:40;1.65;;;0.85;;
61127;SDS011;47013;42.664;23.242;2022-10-31T06:29:06;0.70;;;0.60;;
61127;SDS011;47013;42.664;23.242;2022-10-31T06:31:31;0.98;;;0.52;;
61127;SDS011;47013;42.664;23.242;2022-10-31T06:33:56;0.85;;;0.85;;
61127;SDS011;47013;42.664;23.242;2022-10-31T06:36:22;0.57;;;0.45;;
61127;SDS011;47013;42.664;23.242;2022-10-31T06:38:47;1.70;;;1.33;;
61127;SDS011;47013;42.664;23.242;2022-10-31T06:41:13;2.90;;;1.35;;
61127;SDS011;47013;42.664;23.242;2022-10-31T06:43:38;3.40;;;1.25;;
61127;SDS011;47013;42.664;23.242;2022-10-31T06:46:04;5.68;;;1.50;;
61127;SDS011;47013;42.664;23.242;2022-10-31T06:48:30;2.00;;;1.55;;
61127;SDS011;47013;42.664;23.242;2022-10-31T06:51:00;1.30;;;1.10;;
61127;SDS011;47013;42.664;23.242;2022-10-31T06:53:26;1.42;;;1.13;;
61127;SDS011;47013;42.664;23.242;2022-10-31T06:58:20;0.77;;;0.63;;
61127;SDS011;47013;42.664;23.242;2022-10-31T07:00:45;1.75;;;1.23;;
61127;SDS011;47013;42.664;23.242;2022-10-31T07:03:11;1.90;;;1.10;;
61127;SDS011;47013;42.664;23.242;2022-10-31T07:05:38;2.13;;;1.23;;
61127;SDS011;47013;42.664;23.242;2022-10-31T07:08:05;2.70;;;1.67;;
61127;SDS011;47013;42.664;23.242;2022-10-31T07:10:33;3.70;;;2.00;;
61127;SDS011;47013;42.664;23.242;2022-10-31T07:13:01;2.03;;;1.77;;
61127;SDS011;47013;42.664;23.242;2022-10-31T07:15:29;2.22;;;1.63;;
61127;SDS011;47013;42.664;23.242;2022-10-31T07:18:01;5.10;;;2.25;;
61127;SDS011;47013;42.664;23.242;2022-10-31T07:20:30;2.45;;;1.38;;
61127;SDS011;47013;42.664;23.242;2022-10-31T07:22:56;1.95;;;1.45;;
61127;SDS011;47013;42.664;23.242;2022-10-31T07:25:22;2.63;;;1.85;;
61127;SDS011;47013;42.664;23.242;2022-10-31T07:27:48;4.72;;;1.95;;
61127;SDS011;47013;42.664;23.242;2022-10-31T07:30:14;2.53;;;1.48;;
61127;SDS011;47013;42.664;23.242;2022-10-31T07:32:49;2.05;;;1.73;;
61127;SDS011;47013;42.664;23.242;2022-10-31T07:35:19;3.00;;;1.50;;
61127;SDS011;47013;42.664;23.242;2022-10-31T07:37:47;3.70;;;1.65;;
61127;SDS011;47013;42.664;23.242;2022-10-31T07:40:13;2.88;;;1.52;;
61127;SDS011;47013;42.664;23.242;2022-10-31T07:42:39;8.70;;;1.63;;
61127;SDS011;47013;42.664;23.242;2022-10-31T07:45:09;1.80;;;1.25;;
61127;SDS011;47013;42.664;23.242;2022-10-31T07:50:09;1.15;;;1.08;;
61127;SDS011;47013;42.664;23.242;2022-10-31T07:52:36;1.87;;;1.50;;
61127;SDS011;47013;42.664;23.242;2022-10-31T07:55:01;3.25;;;1.90;;
61127;SDS011;47013;42.664;23.242;2022-10-31T07:57:28;2.45;;;1.52;;
61127;SDS011;47013;42.664;23.242;2022-10-31T07:59:53;1.23;;;1.13;;
61127;SDS011;47013;42.664;23.242;2022-10-31T08:02:18;2.90;;;1.80;;
61127;SDS011;47013;42.664;23.242;2022-10-31T08:04:47;8.75;;;2.17;;
61127;SDS011;47013;42.664;23.242;2022-10-31T08:07:13;2.60;;;1.58;;
61127;SDS011;47013;42.664;23.242;2022-10-31T08:09:38;1.60;;;1.15;;
61127;SDS011;47013;42.664;23.242;2022-10-31T08:12:03;3.55;;;1.92;;
61127;SDS011;47013;42.664;23.242;2022-10-31T08:14:29;2.13;;;1.40;;
61127;SDS011;47013;42.664;23.242;2022-10-31T08:16:55;2.15;;;1.23;;
61127;SDS011;47013;42.664;23.242;2022-10-31T08:19:20;2.35;;;1.58;;
61127;SDS011;47013;42.664;23.242;2022-10-31T08:21:46;3.78;;;1.85;;
61127;SDS011;47013;42.664;23.242;2022-10-31T08:24:11;2.15;;;1.48;;
61127;SDS011;47013;42.664;23.242;2022-10-31T08:26:37;1.95;;;1.23;;
61127;SDS011;47013;42.664;23.242;2022-10-31T08:29:03;2.17;;;1.60;;
61127;SDS011;47013;42.664;23.242;2022-10-31T08:31:29;1.33;;;1.08;;
61127;SDS011;47013;42.664;23.242;2022-10-31T08:33:54;2.90;;;1.58;;
61127;SDS011;47013;42.664;23.242;2022-10-31T08:36:20;3.35;;;1.77;;
61127;SDS011;47013;42.664;23.242;2022-10-31T08:38:46;4.40;;;2.42;;
61127;SDS011;47013;42.664;23.242;2022-10-31T08:41:13;1.92;;;1.23;;
61127;SDS011;47013;42.664;23.242;2022-10-31T08:43:39;3.63;;;1.38;;
61127;SDS011;47013;42.664;23.242;2022-10-31T08:46:04;2.42;;;1.52;;
61127;SDS011;47013;42.664;23.242;2022-10-31T08:48:30;1.85;;;1.33;;
61127;SDS011;47013;42.664;23.242;2022-10-31T08:50:57;2.53;;;1.42;;
61127;SDS011;47013;42.664;23.242;2022-10-31T08:53:23;1.27;;;0.80;;
61127;SDS011;47013;42.664;23.242;2022-10-31T08:55:49;1.75;;;1.13;;
61127;SDS011;47013;42.664;23.242;2022-10-31T08:58:18;4.00;;;1.27;;
61127;SDS011;47013;42.664;23.242;2022-10-31T09:00:45;2.70;;;1.48;;
61127;SDS011;47013;42.664;23.242;2022-10-31T09:03:13;1.87;;;1.23;;
61127;SDS011;47013;42.664;23.242;2022-10-31T09:05:46;1.88;;;1.15;;
61127;SDS011;47013;42.664;23.242;2022-10-31T09:08:12;1.88;;;1.15;;
61127;SDS011;47013;42.664;23.242;2022-10-31T09:10:38;2.95;;;1.38;;
61127;SDS011;47013;42.664;23.242;2022-10-31T09:13:05;3.17;;;1.60;;
61127;SDS011;47013;42.664;23.242;2022-10-31T09:15:39;1.13;;;0.80;;
61127;SDS011;47013;42.664;23.242;2022-10-31T09:18:05;1.20;;;0.80;;
61127;SDS011;47013;42.664;23.242;2022-10-31T09:20:32;3.38;;;1.33;;
61127;SDS011;47013;42.664;23.242;2022-10-31T09:23:00;2.47;;;1.48;;
61127;SDS011;47013;42.664;23.242;2022-10-31T09:25:30;19.65;;;1.17;;
61127;SDS011;47013;42.664;23.242;2022-10-31T09:27:57;2.10;;;1.20;;
61127;SDS011;47013;42.664;23.242;2022-10-31T09:30:23;1.95;;;1.05;;
61127;SDS011;47013;42.664;23.242;2022-10-31T09:32:56;1.63;;;1.23;;
61127;SDS011;47013;42.664;23.242;2022-10-31T09:35:26;1.77;;;1.13;;
61127;SDS011;47013;42.664;23.242;2022-10-31T09:37:55;3.13;;;1.42;;
61127;SDS011;47013;42.664;23.242;2022-10-31T09:40:21;1.95;;;1.20;;
61127;SDS011;47013;42.664;23.242;2022-10-31T09:43:00;1.13;;;0.93;;
61127;SDS011;47013;42.664;23.242;2022-10-31T09:46:00;1.50;;;0.75;;
61127;SDS011;47013;42.664;23.242;2022-10-31T09:48:47;1.20;;;0.80;;
61127;SDS011;47013;42.664;23.242;2022-10-31T09:51:18;2.28;;;1.08;;
61127;SDS011;47013;42.664;23.242;2022-10-31T09:56:33;0.98;;;0.82;;
61127;SDS011;47013;42.664;23.242;2022-10-31T09:59:01;1.00;;;0.68;;
61127;SDS011;47013;42.664;23.242;2022-10-31T10:04:12;2.95;;;1.48;;
61127;SDS011;47013;42.664;23.242;2022-10-31T10:06:41;3.88;;;1.27;;
61127;SDS011;47013;42.664;23.242;2022-10-31T10:09:11;2.13;;;1.33;;
61127;SDS011;47013;42.664;23.242;2022-10-31T10:11:51;0.52;;;0.50;;
61127;SDS011;47013;42.664;23.242;2022-10-31T10:14:34;0.40;;;0.38;;
61127;SDS011;47013;42.664;23.242;2022-10-31T10:20:17;1.50;;;0.82;;
61127;SDS011;47013;42.664;23.242;2022-10-31T10:22:56;1.38;;;0.80;;
61127;SDS011;47013;42.664;23.242;2022-10-31T10:25:38;1.42;;;0.80;;
61127;SDS011;47013;42.664;23.242;2022-10-31T10:28:11;0.85;;;0.63;;
61127;SDS011;47013;42.664;23.242;2022-10-31T10:31:05;0.93;;;0.63;;
61127;SDS011;47013;42.664;23.242;2022-10-31T10:36:27;1.17;;;1.00;;
61127;SDS011;47013;42.664;23.242;2022-10-31T10:39:36;1.00;;;0.80;;
61127;SDS011;47013;42.664;23.242;2022-10-31T10:42:12;1.73;;;1.25;;
61127;SDS011;47013;42.664;23.242;2022-10-31T10:44:57;1.10;;;0.50;;
61127;SDS011;47013;42.664;23.242;2022-10-31T10:47:43;0.80;;;0.60;;
61127;SDS011;47013;42.664;23.242;2022-10-31T10:50:18;1.40;;;0.68;;
61127;SDS011;47013;42.664;23.242;2022-10-31T10:52:48;8.65;;;1.13;;
61127;SDS011;47013;42.664;23.242;2022-10-31T10:58:11;4.50;;;1.25;;
61127;SDS011;47013;42.664;23.242;2022-10-31T11:00:41;0.77;;;0.52;;
61127;SDS011;47013;42.664;23.242;2022-10-31T11:03:11;1.35;;;0.70;;
61127;SDS011;47013;42.664;23.242;2022-10-31T11:08:30;0.40;;;0.40;;
61127;SDS011;47013;42.664;23.242;2022-10-31T11:14:13;0.28;;;0.28;;
61127;SDS011;47013;42.664;23.242;2022-10-31T11:16:42;0.40;;;0.30;;
61127;SDS011;47013;42.664;23.242;2022-10-31T11:21:41;1.05;;;0.65;;
61127;SDS011;47013;42.664;23.242;2022-10-31T11:26:35;1.65;;;0.57;;
61127;SDS011;47013;42.664;23.242;2022-10-31T11:29:03;1.15;;;0.60;;
61127;SDS011;47013;42.664;23.242;2022-10-31T11:31:29;0.68;;;0.43;;
61127;SDS011;47013;42.664;23.242;2022-10-31T11:33:57;1.75;;;0.80;;
61127;SDS011;47013;42.664;23.242;2022-10-31T11:36:26;1.65;;;0.52;;
61127;SDS011;47013;42.664;23.242;2022-10-31T11:38:55;0.68;;;0.45;;
61127;SDS011;47013;42.664;23.242;2022-10-31T11:41:27;0.40;;;0.40;;
61127;SDS011;47013;42.664;23.242;2022-10-31T11:44:04;0.80;;;0.55;;
61127;SDS011;47013;42.664;23.242;2022-10-31T11:46:43;1.27;;;0.73;;
61127;SDS011;47013;42.664;23.242;2022-10-31T11:49:15;1.85;;;0.70;;
61127;SDS011;47013;42.664;23.242;2022-10-31T11:51:47;2.45;;;1.17;;
61127;SDS011;47013;42.664;23.242;2022-10-31T11:54:18;0.80;;;0.80;;
61127;SDS011;47013;42.664;23.242;2022-10-31T11:56:50;1.30;;;0.70;;
61127;SDS011;47013;42.664;23.242;2022-10-31T12:01:56;0.85;;;0.65;;
61127;SDS011;47013;42.664;23.242;2022-10-31T12:04:34;0.77;;;0.77;;
61127;SDS011;47013;42.664;23.242;2022-10-31T12:07:09;0.98;;;0.50;;
61127;SDS011;47013;42.664;23.242;2022-10-31T12:09:35;0.82;;;0.65;;
61127;SDS011;47013;42.664;23.242;2022-10-31T12:20:52;0.20;;;0.20;;
61127;SDS011;47013;42.664;23.242;2022-10-31T12:29:12;1.23;;;0.60;;
61127;SDS011;47013;42.664;23.242;2022-10-31T12:34:47;0.57;;;0.57;;
61127;SDS011;47013;42.664;23.242;2022-10-31T12:46:37;0.88;;;0.50;;
61127;SDS011;47013;42.664;23.242;2022-10-31T12:49:32;1.52;;;0.90;;
61127;SDS011;47013;42.664;23.242;2022-10-31T12:52:09;1.17;;;0.85;;
61127;SDS011;47013;42.664;23.242;2022-10-31T12:54:42;0.93;;;0.57;;
61127;SDS011;47013;42.664;23.242;2022-10-31T13:05:00;1.07;;;0.50;;
61127;SDS011;47013;42.664;23.242;2022-10-31T13:07:39;3.92;;;1.13;;
61127;SDS011;47013;42.664;23.242;2022-10-31T13:13:13;1.05;;;0.77;;
61127;SDS011;47013;42.664;23.242;2022-10-31T13:15:48;1.92;;;0.98;;
61127;SDS011;47013;42.664;23.242;2022-10-31T13:18:25;0.93;;;0.85;;
61127;SDS011;47013;42.664;23.242;2022-10-31T13:20:55;1.75;;;0.88;;
61127;SDS011;47013;42.664;23.242;2022-10-31T13:26:00;0.57;;;0.57;;
61127;SDS011;47013;42.664;23.242;2022-10-31T13:28:36;0.85;;;0.68;;
61127;SDS011;47013;42.664;23.242;2022-10-31T13:31:08;1.00;;;0.70;;
61127;SDS011;47013;42.664;23.242;2022-10-31T13:44:20;1.67;;;0.98;;
61127;SDS011;47013;42.664;23.242;2022-10-31T13:46:49;0.60;;;0.47;;
61127;SDS011;47013;42.664;23.242;2022-10-31T13:54:43;1.70;;;1.08;;
61127;SDS011;47013;42.664;23.242;2022-10-31T13:57:18;1.33;;;0.55;;
61127;SDS011;47013;42.664;23.242;2022-10-31T13:59:51;5.60;;;0.85;;
61127;SDS011;47013;42.664;23.242;2022-10-31T14:02:25;0.75;;;0.60;;
61127;SDS011;47013;42.664;23.242;2022-10-31T14:05:37;0.68;;;0.45;;
61127;SDS011;47013;42.664;23.242;2022-10-31T14:07:45;1.20;;;0.70;;
61127;SDS011;47013;42.664;23.242;2022-10-31T14:10:31;4.43;;;0.60;;
61127;SDS011;47013;42.664;23.242;2022-10-31T14:18:30;1.50;;;0.93;;
61127;SDS011;47013;42.664;23.242;2022-10-31T14:21:01;5.60;;;1.70;;
61127;SDS011;47013;42.664;23.242;2022-10-31T14:23:39;1.15;;;0.52;;
61127;SDS011;47013;42.664;23.242;2022-10-31T14:26:06;1.88;;;0.80;;
61127;SDS011;47013;42.664;23.242;2022-10-31T14:28:41;1.52;;;0.90;;
61127;SDS011;47013;42.664;23.242;2022-10-31T14:34:06;1.55;;;1.10;;
61127;SDS011;47013;42.664;23.242;2022-10-31T14:50:47;0.68;;;0.50;;
61127;SDS011;47013;42.664;23.242;2022-10-31T14:53:26;0.50;;;0.50;;
61127;SDS011;47013;42.664;23.242;2022-10-31T14:55:55;2.15;;;0.57;;
61127;SDS011;47013;42.664;23.242;2022-10-31T14:58:24;0.38;;;0.38;;
61127;SDS011;47013;42.664;23.242;2022-10-31T15:00:58;0.57;;;0.57;;
61127;SDS011;47013;42.664;23.242;2022-10-31T15:03:26;10.07;;;1.02;;
61127;SDS011;47013;42.664;23.242;2022-10-31T15:05:53;5.22;;;0.82;;
61127;SDS011;47013;42.664;23.242;2022-10-31T15:11:16;0.60;;;0.47;;
61127;SDS011;47013;42.664;23.242;2022-10-31T15:13:46;4.20;;;1.10;;
61127;SDS011;47013;42.664;23.242;2022-10-31T15:16:13;0.95;;;0.68;;
61127;SDS011;47013;42.664;23.242;2022-10-31T15:19:00;1.45;;;1.00;;
61127;SDS011;47013;42.664;23.242;2022-10-31T15:21:28;0.65;;;0.57;;
61127;SDS011;47013;42.664;23.242;2022-10-31T15:23:58;1.63;;;0.88;;
61127;SDS011;47013;42.664;23.242;2022-10-31T15:26:31;0.60;;;0.60;;
61127;SDS011;47013;42.664;23.242;2022-10-31T15:29:00;10.73;;;2.88;;
61127;SDS011;47013;42.664;23.242;2022-10-31T15:31:28;7.85;;;2.53;;
61127;SDS011;47013;42.664;23.242;2022-10-31T15:33:55;22.10;;;6.93;;
61127;SDS011;47013;42.664;23.242;2022-10-31T15:36:26;19.25;;;4.63;;
61127;SDS011;47013;42.664;23.242;2022-10-31T15:38:51;7.70;;;2.05;;
61127;SDS011;47013;42.664;23.242;2022-10-31T15:44:06;5.07;;;2.17;;
61127;SDS011;47013;42.664;23.242;2022-10-31T15:46:40;4.47;;;2.08;;
61127;SDS011;47013;42.664;23.242;2022-10-31T15:49:10;11.75;;;4.22;;
61127;SDS011;47013;42.664;23.242;2022-10-31T15:51:47;6.47;;;2.78;;
61127;SDS011;47013;42.664;23.242;2022-10-31T15:54:12;5.13;;;2.38;;
61127;SDS011;47013;42.664;23.242;2022-10-31T15:56:39;2.90;;;1.17;;
61127;SDS011;47013;42.664;23.242;2022-10-31T15:59:11;1.27;;;0.95;;
61127;SDS011;47013;42.664;23.242;2022-10-31T16:01:55;1.70;;;0.85;;
61127;SDS011;47013;42.664;23.242;2022-10-31T16:04:25;4.65;;;2.30;;
61127;SDS011;47013;42.664;23.242;2022-10-31T16:07:01;10.85;;;3.25;;
61127;SDS011;47013;42.664;23.242;2022-10-31T16:09:36;1.92;;;1.33;;
61127;SDS011;47013;42.664;23.242;2022-10-31T16:12:02;2.72;;;1.63;;
61127;SDS011;47013;42.664;23.242;2022-10-31T16:14:29;4.57;;;1.35;;
61127;SDS011;47013;42.664;23.242;2022-10-31T16:16:58;1.85;;;1.02;;
61127;SDS011;47013;42.664;23.242;2022-10-31T16:22:06;1.88;;;1.08;;
61127;SDS011;47013;42.664;23.242;2022-10-31T16:24:43;1.63;;;1.05;;
61127;SDS011;47013;42.664;23.242;2022-10-31T16:27:19;1.50;;;0.88;;
61127;SDS011;47013;42.664;23.242;2022-10-31T16:29:53;0.35;;;0.35;;
61127;SDS011;47013;42.664;23.242;2022-10-31T16:32:28;0.70;;;0.38;;
61127;SDS011;47013;42.664;23.242;2022-10-31T16:37:33;1.30;;;0.68;;
61127;SDS011;47013;42.664;23.242;2022-10-31T16:39:58;0.28;;;0.28;;
61127;SDS011;47013;42.664;23.242;2022-10-31T16:42:24;3.80;;;0.77;;
61127;SDS011;47013;42.664;23.242;2022-10-31T16:44:49;0.80;;;0.60;;
61127;SDS011;47013;42.664;23.242;2022-10-31T16:47:16;0.38;;;0.32;;
61127;SDS011;47013;42.664;23.242;2022-10-31T16:49:42;1.13;;;0.68;;
61127;SDS011;47013;42.664;23.242;2022-10-31T16:52:08;1.98;;;0.90;;
61127;SDS011;47013;42.664;23.242;2022-10-31T16:54:34;0.45;;;0.45;;
61127;SDS011;47013;42.664;23.242;2022-10-31T16:57:00;3.53;;;0.50;;
61127;SDS011;47013;42.664;23.242;2022-10-31T16:59:27;2.47;;;0.90;;
61127;SDS011;47013;42.664;23.242;2022-10-31T17:01:54;0.85;;;0.70;;
61127;SDS011;47013;42.664;23.242;2022-10-31T17:04:20;1.58;;;0.90;;
61127;SDS011;47013;42.664;23.242;2022-10-31T17:06:46;0.90;;;0.45;;
61127;SDS011;47013;42.664;23.242;2022-10-31T17:09:11;0.68;;;0.47;;
61127;SDS011;47013;42.664;23.242;2022-10-31T17:11:38;1.02;;;0.80;;
61127;SDS011;47013;42.664;23.242;2022-10-31T17:14:07;0.63;;;0.45;;
61127;SDS011;47013;42.664;23.242;2022-10-31T17:16:33;0.15;;;0.15;;